createdAt,value
2022-08-11T00:04:55.943Z,100948.06
2022-08-11T00:10:00.585Z,100947.63
2022-08-11T00:15:03.547Z,100949.03
2022-08-11T00:20:12.027Z,100936.81
2022-08-11T00:25:22.135Z,100950.34
2022-08-11T00:30:24.834Z,100949.31
2022-08-11T00:35:52.012Z,100952.56
2022-08-11T00:40:56.585Z,100947.97
2022-08-11T00:46:13.766Z,100940.91
2022-08-11T00:51:24.669Z,100937.97
2022-08-11T00:57:02.636Z,100939.94
2022-08-11T01:02:43.066Z,100945.16
2022-08-11T01:08:16.449Z,100943.81
2022-08-11T01:13:39.048Z,100938.47
2022-08-11T01:19:27.777Z,100941.41
2022-08-11T01:24:52.947Z,100941.97
2022-08-11T01:30:15.422Z,100942.88
2022-08-11T01:35:50.819Z,100934.63
2022-08-11T01:41:02.329Z,100935.00
2022-08-11T01:46:08.278Z,100932.69
2022-08-11T01:51:24.937Z,100935.72
2022-08-11T01:56:41.537Z,100937.28
2022-08-11T02:02:00.265Z,100943.50
2022-08-11T02:07:12.349Z,100941.06
2022-08-11T02:12:21.463Z,100945.78
2022-08-11T02:17:42.427Z,100936.25
2022-08-11T02:23:11.720Z,100945.72
2022-08-11T02:28:25.842Z,100941.22
2022-08-11T02:33:34.511Z,100937.28
2022-08-11T02:38:45.218Z,100944.97
2022-08-11T02:43:54.082Z,100942.03
2022-08-11T02:49:19.580Z,100942.13
2022-08-11T02:54:27.752Z,100944.94
2022-08-11T02:59:53.685Z,100942.44
2022-08-11T03:05:02.560Z,100947.94
2022-08-11T03:10:11.758Z,100959.06
2022-08-11T03:15:37.801Z,100957.66
2022-08-11T03:20:46.690Z,100959.19
2022-08-11T03:25:56.033Z,100950.63
2022-08-11T03:31:09.173Z,100955.16
2022-08-11T03:36:19.644Z,100948.91
2022-08-11T03:42:02.086Z,100955.88
2022-08-11T03:47:24.199Z,100967.00
2022-08-11T03:52:39.219Z,100957.69
2022-08-11T03:58:23.387Z,100954.69
2022-08-11T04:03:47.183Z,100951.06
2022-08-11T04:09:16.724Z,100947.81
2022-08-11T04:15:04.678Z,100963.09
2022-08-11T04:20:37.972Z,100954.09
2022-08-11T04:26:01.209Z,100955.53
2022-08-11T04:31:51.156Z,100953.38
2022-08-11T04:37:28.996Z,100959.00
2022-08-11T04:43:24.341Z,100961.16
2022-08-11T04:49:12.389Z,100963.75
2022-08-11T04:55:01.130Z,100959.22
2022-08-11T05:00:25.099Z,100963.78
2022-08-11T05:05:37.691Z,100964.84
2022-08-11T05:10:57.931Z,100960.97
2022-08-11T05:16:21.737Z,100975.16
2022-08-11T05:21:44.670Z,100969.09
2022-08-11T05:27:11.267Z,100964.84
2022-08-11T05:32:35.430Z,100967.53
2022-08-11T05:37:57.714Z,100971.84
2022-08-11T05:43:20.129Z,100978.38
2022-08-11T05:48:41.027Z,100973.72
2022-08-11T05:54:06.733Z,100978.88
2022-08-11T05:59:29.979Z,100980.50
2022-08-11T06:04:33.025Z,100982.13
2022-08-11T06:09:38.959Z,100986.97
2022-08-11T06:14:44.324Z,100983.66
2022-08-11T06:19:48.852Z,100993.63
2022-08-11T06:24:57.455Z,100995.78
2022-08-11T06:30:00.826Z,101002.50
2022-08-11T06:35:11.469Z,101006.09
2022-08-11T06:40:27.354Z,101008.91
2022-08-11T06:45:35.181Z,101003.03
2022-08-11T06:50:55.866Z,101000.47
2022-08-11T06:56:17.955Z,101003.44
2022-08-11T07:01:31.415Z,101001.09
2022-08-11T07:06:50.951Z,100996.88
2022-08-11T07:12:19.156Z,100999.03
2022-08-11T07:17:23.674Z,100990.94
2022-08-11T07:22:45.340Z,100989.16
2022-08-11T07:28:10.527Z,100984.91
2022-08-11T07:34:04.766Z,100984.94
2022-08-11T07:38:45.979Z,100986.66
2022-08-11T07:43:53.829Z,100985.66
2022-08-11T07:49:14.520Z,100985.50
2022-08-11T07:54:17.589Z,100978.50
2022-08-11T08:00:00.046Z,100979.56
2022-08-11T08:05:23.534Z,100982.88
2022-08-11T08:10:44.226Z,100977.28
2022-08-11T08:16:05.938Z,100980.56
2022-08-11T08:21:16.806Z,100984.03
2022-08-11T08:26:37.769Z,100976.56
2022-08-11T08:31:42.124Z,100979.19
2022-08-11T08:36:46.275Z,100973.91
2022-08-11T08:41:50.570Z,100967.81
2022-08-11T08:46:56.228Z,100955.84
2022-08-11T08:52:21.141Z,100952.09
2022-08-11T08:57:29.774Z,100952.88
2022-08-11T09:02:35.214Z,100944.34
2022-08-11T09:07:39.913Z,100945.88
2022-08-11T09:12:43.544Z,100942.88
2022-08-11T09:17:48.985Z,100945.28
2022-08-11T09:28:34.447Z,100934.50
2022-08-11T09:33:38.909Z,100930.56
2022-08-11T09:39:03.608Z,100923.75
2022-08-11T09:44:24.620Z,100922.59
2022-08-11T09:49:29.471Z,100929.47
2022-08-11T09:54:32.188Z,100925.53
2022-08-11T09:59:36.613Z,100915.84
2022-08-11T10:04:43.007Z,100914.75
2022-08-11T10:09:49.785Z,100911.97
2022-08-11T10:15:13.100Z,100902.47
2022-08-11T10:20:21.434Z,100896.22
2022-08-11T10:32:14.529Z,100893.50
2022-08-11T10:37:20.615Z,100888.22
2022-08-11T10:42:57.533Z,100884.88
2022-08-11T10:48:01.118Z,100872.50
2022-08-11T10:53:22.781Z,100861.22
2022-08-11T10:58:42.907Z,100863.91
2022-08-11T11:03:46.057Z,100852.63
2022-08-11T11:09:00.054Z,100855.78
2022-08-11T11:14:23.519Z,100853.09
2022-08-11T11:19:30.321Z,100843.09
2022-08-11T11:24:41.343Z,100845.53
2022-08-11T11:29:54.780Z,100832.25
2022-08-11T11:35:17.441Z,100834.38
2022-08-11T11:40:28.683Z,100818.97
2022-08-11T11:45:34.889Z,100824.44
2022-08-11T11:50:38.927Z,100824.50
2022-08-11T11:55:43.163Z,100815.81
2022-08-11T12:01:04.258Z,100807.13
2022-08-11T12:06:08.519Z,100807.59
2022-08-11T12:11:31.116Z,100799.81
2022-08-11T12:16:37.005Z,100789.47
2022-08-11T12:22:01.913Z,100789.44
2022-08-11T12:27:24.281Z,100781.91
2022-08-11T12:32:31.103Z,100779.03
2022-08-11T12:37:36.937Z,100770.50
2022-08-11T12:42:58.675Z,100761.19
2022-08-11T12:48:58.892Z,100753.44
2022-08-11T12:53:55.125Z,100754.28
2022-08-11T12:59:17.523Z,100753.84
2022-08-11T13:04:38.223Z,100753.59
2022-08-11T13:09:42.113Z,100734.56
2022-08-11T13:14:46.359Z,100732.16
2022-08-11T13:19:49.831Z,100734.19
2022-08-11T13:24:55.279Z,100725.50
2022-08-11T13:30:13.961Z,100718.47
2022-08-11T13:35:17.213Z,100709.53
2022-08-11T13:40:33.271Z,100699.19
2022-08-11T13:45:47.811Z,100698.84
2022-08-11T13:51:08.099Z,100688.31
2022-08-11T13:56:10.896Z,100686.19
2022-08-11T14:02:20.646Z,100684.66
2022-08-11T14:06:42.305Z,100673.31
2022-08-11T14:12:22.791Z,100661.50
2022-08-11T14:17:46.771Z,100657.53
2022-08-11T14:22:53.152Z,100671.41
2022-08-11T14:28:32.202Z,100656.53
2022-08-11T14:33:21.274Z,100647.31
2022-08-11T14:38:24.246Z,100647.50
2022-08-11T14:44:12.387Z,100646.41
2022-08-11T14:49:09.294Z,100637.78
2022-08-11T14:54:29.871Z,100634.25
2022-08-11T14:59:33.314Z,100635.28
2022-08-11T15:04:37.824Z,100629.78
2022-08-11T15:10:09.844Z,100628.41
2022-08-11T15:15:26.179Z,100612.69
2022-08-11T15:20:53.816Z,100615.22
2022-08-11T15:25:59.412Z,100613.69
2022-08-11T15:31:21.595Z,100605.25
2022-08-11T15:36:43.867Z,100616.94
2022-08-11T15:42:13.137Z,100607.31
2022-08-11T15:47:16.898Z,100608.09
2022-08-11T15:52:24.488Z,100603.63
2022-08-11T15:57:45.314Z,100607.78
2022-08-11T16:03:08.968Z,100593.28
2022-08-11T16:08:17.094Z,100595.97
2022-08-11T16:13:50.758Z,100585.91
2022-08-11T16:18:56.555Z,100588.28
2022-08-11T16:24:01.825Z,100581.63
2022-08-11T16:29:04.882Z,100576.22
2022-08-11T16:34:28.545Z,100571.34
2022-08-11T16:39:33.071Z,100573.25
2022-08-11T16:44:55.722Z,100568.16
2022-08-11T16:49:59.155Z,100572.06
2022-08-11T16:55:04.045Z,100573.22
2022-08-11T17:00:12.578Z,100569.16
2022-08-11T17:05:38.243Z,100577.00
2022-08-11T17:11:07.071Z,100584.56
2022-08-11T17:16:13.179Z,100577.75
2022-08-11T17:21:19.818Z,100580.13
2022-08-11T17:26:51.477Z,100580.13
2022-08-11T17:32:13.721Z,100576.31
2022-08-11T17:37:16.745Z,100581.38
2022-08-11T17:42:39.283Z,100571.63
2022-08-11T17:48:00.027Z,100576.69
2022-08-11T17:53:21.447Z,100567.75
2022-08-11T17:58:44.186Z,100565.31
2022-08-11T18:03:57.321Z,100571.88
2022-08-11T18:09:20.168Z,100584.56
2022-08-11T18:14:42.902Z,100589.94
2022-08-11T18:20:03.418Z,100589.44
2022-08-11T18:25:27.628Z,100604.84
2022-08-11T18:30:50.420Z,100605.63
2022-08-11T18:36:17.503Z,100606.94
2022-08-11T18:41:38.534Z,100616.56
2022-08-11T18:47:02.301Z,100615.84
2022-08-11T18:52:28.397Z,100613.69
2022-08-11T18:57:53.909Z,100617.47
2022-08-11T19:03:17.480Z,100612.88
2022-08-11T19:08:38.269Z,100625.22
2022-08-11T19:13:59.441Z,100625.34
2022-08-11T19:19:21.558Z,100624.75
2022-08-11T19:24:43.801Z,100622.56
2022-08-11T19:30:13.521Z,100637.47
2022-08-11T19:35:36.485Z,100642.38
2022-08-11T19:40:58.086Z,100644.34
2022-08-11T19:46:19.513Z,100640.72
2022-08-11T19:51:42.931Z,100643.38
2022-08-11T19:57:04.307Z,100636.72
2022-08-11T20:02:24.752Z,100633.34
2022-08-11T20:07:46.933Z,100643.34
2022-08-11T20:13:07.637Z,100632.72
2022-08-11T20:18:29.795Z,100639.47
2022-08-11T20:23:51.724Z,100637.31
2022-08-11T20:29:12.785Z,100645.47
2022-08-11T20:34:34.700Z,100650.50
2022-08-11T20:39:57.491Z,100650.47
2022-08-11T20:45:23.936Z,100658.84
2022-08-11T20:50:45.944Z,100663.91
2022-08-11T20:56:08.279Z,100667.47
2022-08-11T21:01:38.609Z,100661.59
2022-08-11T21:07:00.277Z,100665.13
2022-08-11T21:12:24.520Z,100672.50
2022-08-11T21:18:00.839Z,100661.44
2022-08-11T21:23:29.226Z,100673.91
2022-08-11T21:28:52.602Z,100677.81
2022-08-11T21:34:13.422Z,100685.19
2022-08-11T21:39:36.634Z,100685.50
2022-08-11T21:44:58.595Z,100683.91
2022-08-11T21:50:19.001Z,100692.22
2022-08-11T21:55:40.071Z,100686.72
2022-08-11T22:01:02.362Z,100693.09
2022-08-11T22:06:22.994Z,100698.47
2022-08-11T22:11:43.260Z,100702.84
2022-08-11T22:17:05.039Z,100698.13
2022-08-11T22:22:26.264Z,100686.84
2022-08-11T22:27:46.696Z,100686.88
2022-08-11T22:33:08.387Z,100691.81
2022-08-11T22:38:28.731Z,100687.31
2022-08-11T22:43:49.229Z,100685.28
2022-08-11T22:49:11.368Z,100688.38
2022-08-11T22:54:32.416Z,100694.16
2022-08-11T22:59:54.037Z,100701.75
2022-08-11T23:05:16.448Z,100698.25
2022-08-11T23:10:37.170Z,100693.94
2022-08-11T23:15:57.869Z,100693.31
2022-08-11T23:21:20.527Z,100706.91
2022-08-11T23:26:42.894Z,100692.69
2022-08-11T23:32:04.985Z,100692.06
2022-08-11T23:37:26.973Z,100691.66
2022-08-11T23:42:47.356Z,100684.28
2022-08-11T23:48:08.596Z,100690.81
2022-08-11T23:53:31.222Z,100687.72
2022-08-11T23:58:52.906Z,100688.06
